Time;durP1;ratioP1;P1;durP2;ratioP2;P2;SDS_P1;SDS_P2;PMS_P1;PMS_P2;Temp;Humidity;BMP_temperature;BMP_pressure;BME280_temperature;BME280_humidity;BME280_pressure;Samples;Min_cycle;Max_cycle;Signal;HPM_P1;HPM_P2
2023/07/20 00:01:14;;;;;;;1999.90;999.90;;;16.50;99.90;;;;;;5052444;28;20479;-72
2023/07/20 00:03:39;;;;;;;1999.90;999.90;;;16.50;99.90;;;;;;5052151;28;20029;-72
2023/07/20 00:06:05;;;;;;;1999.90;999.90;;;16.50;99.90;;;;;;5052247;28;20037;-72
2023/07/20 00:08:31;;;;;;;1999.90;999.90;;;16.50;99.90;;;;;;5052200;28;20029;-72
2023/07/20 00:10:56;;;;;;;1999.90;999.90;;;16.40;99.90;;;;;;5051840;28;20025;-74
2023/07/20 00:13:22;;;;;;;1999.90;999.90;;;16.40;99.90;;;;;;5034288;28;20434;-75
2023/07/20 00:15:48;;;;;;;1999.90;999.90;;;16.40;99.90;;;;;;5036518;28;20128;-72
2023/07/20 00:18:14;;;;;;;1999.90;999.90;;;16.40;99.90;;;;;;5038176;28;20475;-72
2023/07/20 00:20:40;;;;;;;1999.90;999.90;;;16.40;99.90;;;;;;5037374;28;20017;-72
2023/07/20 00:23:06;;;;;;;1999.90;999.90;;;16.40;99.90;;;;;;5055702;28;20107;-72
2023/07/20 00:25:31;;;;;;;1999.90;999.90;;;16.30;99.90;;;;;;5037598;28;20027;-72
2023/07/20 00:27:57;;;;;;;1999.90;999.90;;;16.30;99.90;;;;;;5055670;28;20136;-72
2023/07/20 00:30:23;;;;;;;1999.90;999.90;;;16.30;99.90;;;;;;5056169;28;20028;-72
2023/07/20 00:32:48;;;;;;;1999.90;999.90;;;16.30;99.90;;;;;;5055722;28;20079;-72
2023/07/20 00:35:14;;;;;;;1999.90;999.90;;;16.20;99.90;;;;;;5053937;28;20021;-72
2023/07/20 00:37:40;;;;;;;1999.90;999.90;;;16.20;99.90;;;;;;5055658;28;20096;-72
2023/07/20 00:40:09;;;;;;;1999.90;999.90;;;16.20;99.90;;;;;;5055866;28;20025;-74
2023/07/20 00:42:34;;;;;;;1999.90;999.90;;;16.20;99.90;;;;;;5055679;28;20543;-72
2023/07/20 00:45:00;;;;;;;1999.90;999.90;;;16.20;99.90;;;;;;5036804;28;20180;-72
2023/07/20 00:47:27;;;;;;;1999.90;999.90;;;16.20;99.90;;;;;;5054739;28;20082;-72
2023/07/20 00:49:53;;;;;;;1999.90;999.90;;;16.10;99.90;;;;;;5055391;28;20024;-74
2023/07/20 00:52:21;;;;;;;1999.90;999.90;;;16.20;99.90;;;;;;5055570;28;20415;-73
2023/07/20 00:54:47;;;;;;;1999.90;999.90;;;16.10;99.90;;;;;;5055386;28;20021;-72
2023/07/20 00:57:15;;;;;;;1999.90;999.90;;;16.10;99.90;;;;;;5055310;28;20060;-74
2023/07/20 00:59:41;;;;;;;1999.90;999.90;;;16.10;99.90;;;;;;5055070;28;20024;-72
2023/07/20 01:02:07;;;;;;;1999.90;999.90;;;16.10;99.90;;;;;;5055409;28;20110;-73
2023/07/20 01:04:34;;;;;;;1999.90;999.90;;;16.10;99.90;;;;;;5037456;28;20033;-72
2023/07/20 01:07:02;;;;;;;1999.90;999.90;;;16.00;99.90;;;;;;5055058;28;20033;-74
2023/07/20 01:09:44;;;;;;;1999.90;999.90;;;16.00;99.90;;;;;;5054796;28;20017;-72
2023/07/20 01:12:18;;;;;;;1999.90;999.90;;;16.00;99.90;;;;;;5035257;28;20033;-72
2023/07/20 01:14:45;;;;;;;1999.90;999.90;;;16.00;99.90;;;;;;5054786;28;20017;-72
2023/07/20 01:17:10;;;;;;;1999.90;999.90;;;16.00;99.90;;;;;;5054149;28;20032;-72
2023/07/20 01:19:36;;;;;;;1999.90;999.90;;;16.00;99.90;;;;;;5054964;28;20383;-72
2023/07/20 01:22:21;;;;;;;1999.90;999.90;;;15.90;99.90;;;;;;5036766;28;20056;-72
2023/07/20 01:24:49;;;;;;;1999.90;999.90;;;15.90;99.90;;;;;;5054623;28;20099;-72
2023/07/20 01:27:38;;;;;;;1999.90;999.90;;;15.90;99.90;;;;;;5054271;28;20107;-72
2023/07/20 01:30:16;;;;;;;1999.90;999.90;;;15.80;99.90;;;;;;5055109;28;20021;-71
2023/07/20 01:32:44;;;;;;;1999.90;999.90;;;15.80;99.90;;;;;;5054779;28;20029;-73
2023/07/20 01:35:16;;;;;;;1999.90;999.90;;;15.70;99.90;;;;;;5036297;28;20047;-73
2023/07/20 01:37:46;;;;;;;1999.90;999.90;;;15.70;99.90;;;;;;5036321;28;20036;-72
2023/07/20 01:40:14;;;;;;;1999.90;999.90;;;15.70;99.90;;;;;;5054880;28;20114;-72
2023/07/20 01:42:45;;;;;;;1999.90;999.90;;;15.70;99.90;;;;;;5036881;28;20400;-74
2023/07/20 01:45:10;;;;;;;1999.90;999.90;;;15.60;99.90;;;;;;5054246;28;20506;-74
2023/07/20 01:47:36;;;;;;;1999.90;999.90;;;15.70;99.90;;;;;;5054172;28;20028;-72
2023/07/20 01:50:02;;;;;;;1999.90;999.90;;;15.70;99.90;;;;;;5054124;28;20430;-72
2023/07/20 01:52:27;;;;;;;1999.90;999.90;;;15.70;99.90;;;;;;5054216;28;20031;-72
2023/07/20 01:54:53;;;;;;;1999.90;999.90;;;15.60;99.90;;;;;;5054359;28;20029;-74
2023/07/20 01:57:18;;;;;;;1999.90;999.90;;;15.60;99.90;;;;;;5054132;28;20380;-74
2023/07/20 01:59:44;;;;;;;1999.90;999.90;;;15.60;99.90;;;;;;5053998;28;20036;-72
2023/07/20 02:02:09;;;;;;;1999.90;999.90;;;15.60;99.90;;;;;;5053965;28;20051;-71
2023/07/20 02:04:35;;;;;;;1999.90;999.90;;;15.60;99.90;;;;;;5054506;28;20056;-72
2023/07/20 02:07:01;;;;;;;1999.90;999.90;;;15.60;99.90;;;;;;5053871;28;20518;-72
2023/07/20 02:09:26;;;;;;;1999.90;999.90;;;15.60;99.90;;;;;;5054000;28;20013;-74
2023/07/20 02:11:52;;;;;;;1999.90;999.90;;;15.60;99.90;;;;;;5053527;28;20124;-72
2023/07/20 02:14:18;;;;;;;1999.90;999.90;;;15.60;99.90;;;;;;5053566;28;20025;-72
2023/07/20 02:16:43;;;;;;;1999.90;999.90;;;15.60;99.90;;;;;;5053725;28;20115;-72
2023/07/20 02:19:09;;;;;;;1999.90;999.90;;;15.60;99.90;;;;;;5053852;28;20032;-72
2023/07/20 02:21:34;;;;;;;1999.90;999.90;;;15.50;99.90;;;;;;5053869;28;20391;-74
2023/07/20 02:24:00;;;;;;;1999.90;999.90;;;15.50;99.90;;;;;;5053373;28;20021;-72
2023/07/20 02:26:26;;;;;;;1999.90;999.90;;;15.50;99.90;;;;;;5033632;28;20025;-72
2023/07/20 02:28:51;;;;;;;1999.90;999.90;;;15.50;99.90;;;;;;5053861;28;20021;-72
2023/07/20 02:31:17;;;;;;;1999.90;999.90;;;15.50;99.90;;;;;;5053721;28;20127;-74
2023/07/20 02:33:42;;;;;;;1999.90;999.90;;;15.50;99.90;;;;;;5053440;28;20435;-74
2023/07/20 02:36:08;;;;;;;1999.90;999.90;;;15.50;99.90;;;;;;5053245;28;20719;-72
2023/07/20 02:38:34;;;;;;;1999.90;999.90;;;15.50;99.90;;;;;;5052628;28;20025;-72
2023/07/20 02:40:59;;;;;;;1999.90;999.90;;;15.60;99.90;;;;;;5053327;28;20025;-72
2023/07/20 02:43:25;;;;;;;1999.90;999.90;;;15.50;99.90;;;;;;5035575;28;20107;-72
2023/07/20 02:45:51;;;;;;;1999.90;999.90;;;15.50;99.90;;;;;;5053264;28;20021;-72
2023/07/20 02:48:16;;;;;;;1999.90;999.90;;;15.50;99.90;;;;;;5052961;28;20364;-73
2023/07/20 02:50:43;;;;;;;1999.90;999.90;;;15.40;99.90;;;;;;5051878;28;20480;-72
2023/07/20 02:53:09;;;;;;;1999.90;999.90;;;15.40;99.90;;;;;;5053231;28;20033;-72
2023/07/20 02:55:35;;;;;;;1999.90;999.90;;;15.50;99.90;;;;;;5053345;28;20025;-72
2023/07/20 02:58:00;;;;;;;1999.90;999.90;;;15.40;99.90;;;;;;5035155;28;20155;-72
2023/07/20 03:00:26;;;;;;;1999.90;999.90;;;15.50;99.90;;;;;;5052969;28;20025;-72
2023/07/20 03:02:55;;;;;;;1999.90;999.90;;;15.50;99.90;;;;;;5034866;28;20036;-74
2023/07/20 03:05:22;;;;;;;1999.90;999.90;;;15.50;99.90;;;;;;5053472;28;20032;-72
2023/07/20 03:07:49;;;;;;;1999.90;999.90;;;15.40;99.90;;;;;;5052701;28;20032;-72
2023/07/20 03:10:14;;;;;;;1999.90;999.90;;;15.40;99.90;;;;;;5052648;28;20033;-72
2023/07/20 03:12:40;;;;;;;1999.90;999.90;;;15.40;99.90;;;;;;5034796;28;20025;-73
2023/07/20 03:15:06;;;;;;;1999.90;999.90;;;15.40;99.90;;;;;;5052286;28;20041;-75
2023/07/20 03:17:32;;;;;;;1999.90;999.90;;;15.40;99.90;;;;;;5052923;28;20036;-72
2023/07/20 03:19:59;;;;;;;1999.90;999.90;;;15.40;99.90;;;;;;5052347;28;20068;-71
2023/07/20 03:22:25;;;;;;;1999.90;999.90;;;15.40;99.90;;;;;;5052563;28;20087;-72
2023/07/20 03:24:52;;;;;;;1999.90;999.90;;;15.40;99.90;;;;;;5034465;28;20499;-72
2023/07/20 03:27:18;;;;;;;1999.90;999.90;;;15.30;99.90;;;;;;5034529;28;20080;-74
2023/07/20 03:29:44;;;;;;;1999.90;999.90;;;15.40;99.90;;;;;;5052675;28;20491;-72
2023/07/20 03:32:10;;;;;;;1999.90;999.90;;;15.40;99.90;;;;;;5034808;28;20048;-72
2023/07/20 03:34:36;;;;;;;1999.90;999.90;;;15.40;99.90;;;;;;5052441;28;20488;-72
2023/07/20 03:37:04;;;;;;;1999.90;999.90;;;15.40;99.90;;;;;;5052467;28;20028;-72
2023/07/20 03:39:30;;;;;;;1999.90;999.90;;;15.40;99.90;;;;;;5034557;28;20037;-74
2023/07/20 03:41:55;;;;;;;1999.90;999.90;;;15.40;99.90;;;;;;5052715;28;20075;-72
2023/07/20 03:44:21;;;;;;;1999.90;999.90;;;15.30;99.90;;;;;;5052613;28;20032;-72
2023/07/20 03:46:47;;;;;;;1999.90;999.90;;;15.30;99.90;;;;;;5052410;28;20029;-72
2023/07/20 03:49:12;;;;;;;1999.90;999.90;;;15.30;99.90;;;;;;5054178;28;20424;-72
2023/07/20 03:51:38;;;;;;;1999.90;999.90;;;15.30;99.90;;;;;;5038790;28;20021;-73
2023/07/20 03:54:03;;;;;;;1999.90;999.90;;;15.30;99.90;;;;;;5056436;28;20052;-74
2023/07/20 03:56:34;;;;;;;1999.90;999.90;;;15.20;99.90;;;;;;5056386;28;20037;-72
2023/07/20 03:58:59;;;;;;;1999.90;999.90;;;15.30;99.90;;;;;;5056139;28;20029;-72
2023/07/20 04:01:25;;;;;;;1999.90;999.90;;;15.30;99.90;;;;;;5056430;28;20025;-72
2023/07/20 04:03:50;;;;;;;1999.90;999.90;;;15.30;99.90;;;;;;5056531;28;20033;-72
2023/07/20 04:06:17;;;;;;;1999.90;999.90;;;15.30;99.90;;;;;;5056237;28;20159;-72
2023/07/20 04:08:43;;;;;;;1999.90;999.90;;;15.30;99.90;;;;;;5056076;28;20407;-72
2023/07/20 04:11:08;;;;;;;1999.90;999.90;;;15.20;99.90;;;;;;5055749;28;20021;-72
2023/07/20 04:13:34;;;;;;;1999.90;999.90;;;15.20;99.90;;;;;;5056004;28;20158;-72
2023/07/20 04:16:00;;;;;;;1999.90;999.90;;;15.10;99.90;;;;;;5056213;28;20069;-73
2023/07/20 04:18:26;;;;;;;1999.90;999.90;;;15.10;99.90;;;;;;5037640;28;20029;-73
2023/07/20 04:20:51;;;;;;;1999.90;999.90;;;15.10;99.90;;;;;;5055968;28;20368;-72
2023/07/20 04:23:17;;;;;;;1999.90;999.90;;;15.10;99.90;;;;;;5038061;28;20063;-71
2023/07/20 04:25:43;;;;;;;1999.90;999.90;;;15.00;99.90;;;;;;5055734;28;20391;-72
2023/07/20 04:28:09;;;;;;;1999.90;999.90;;;15.00;99.90;;;;;;5037948;28;20033;-72
2023/07/20 04:30:36;;;;;;;1999.90;999.90;;;15.00;99.90;;;;;;5056105;28;20040;-73
2023/07/20 04:33:02;;;;;;;1999.90;999.90;;;15.00;99.90;;;;;;5055477;28;20104;-72
2023/07/20 04:35:50;;;;;;;1999.90;999.90;;;14.90;99.90;;;;;;5053964;28;20013;-72
2023/07/20 04:38:17;;;;;;;1999.90;999.90;;;14.90;99.90;;;;;;5049537;28;20083;-72
2023/07/20 04:40:45;;;;;;;1999.90;999.90;;;14.90;99.90;;;;;;5037669;28;20059;-72
2023/07/20 04:43:10;;;;;;;1999.90;999.90;;;14.90;99.90;;;;;;5054770;28;20033;-72
2023/07/20 04:45:36;;;;;;;1999.90;999.90;;;14.90;99.90;;;;;;5046804;28;20439;-72
2023/07/20 04:48:02;;;;;;;1999.90;999.90;;;14.90;99.90;;;;;;5035473;28;20040;-71
2023/07/20 04:50:28;;;;;;;1999.90;999.90;;;14.90;99.90;;;;;;5042316;28;20017;-72
2023/07/20 04:52:53;;;;;;;1999.90;999.90;;;14.90;99.90;;;;;;5055359;28;20032;-72
2023/07/20 04:55:19;;;;;;;1999.90;999.90;;;14.90;99.90;;;;;;5037396;28;20025;-71
2023/07/20 04:57:44;;;;;;;1999.90;999.90;;;14.90;99.90;;;;;;5055154;28;20488;-72
2023/07/20 05:00:14;;;;;;;1999.90;999.90;;;15.00;99.90;;;;;;5054559;28;20025;-73
2023/07/20 05:02:39;;;;;;;1999.90;999.90;;;15.10;99.90;;;;;;5036746;28;20522;-72
2023/07/20 05:05:05;;;;;;;1999.90;999.90;;;15.10;99.90;;;;;;5055436;28;20029;-72
2023/07/20 05:07:32;;;;;;;1999.90;999.90;;;15.10;99.90;;;;;;5036933;28;20033;-72
2023/07/20 05:09:58;;;;;;;1999.90;999.90;;;15.20;99.90;;;;;;5054562;28;20412;-72
2023/07/20 05:12:23;;;;;;;1999.90;999.90;;;15.20;99.90;;;;;;5037118;28;20059;-72
2023/07/20 05:14:49;;;;;;;1999.90;999.90;;;15.20;99.90;;;;;;5054250;28;20057;-72
2023/07/20 05:17:14;;;;;;;1999.90;999.90;;;15.10;99.90;;;;;;5056961;28;20510;-73
2023/07/20 05:19:40;;;;;;;1999.90;999.90;;;14.90;99.90;;;;;;5056508;28;20021;-72
2023/07/20 05:22:06;;;;;;;1999.90;999.90;;;14.80;99.90;;;;;;5074550;28;20029;-72
2023/07/20 05:24:31;;;;;;;1999.90;999.90;;;14.70;99.90;;;;;;5059540;28;20408;-73
2023/07/20 05:26:58;;;;;;;1999.90;999.90;;;14.70;99.90;;;;;;5054108;28;20029;-72
2023/07/20 05:29:24;;;;;;;1999.90;999.90;;;14.80;99.90;;;;;;5054958;28;20032;-72
2023/07/20 05:31:50;;;;;;;1999.90;999.90;;;14.80;99.90;;;;;;5054472;28;20033;-72
2023/07/20 05:34:15;;;;;;;1999.90;999.90;;;14.90;99.90;;;;;;5054285;28;20099;-72
2023/07/20 05:36:41;;;;;;;1999.90;999.90;;;15.00;99.90;;;;;;5054215;28;20399;-73
2023/07/20 05:39:06;;;;;;;1999.90;999.90;;;15.10;99.90;;;;;;5053981;28;20032;-72
2023/07/20 05:41:32;;;;;;;1999.90;999.90;;;15.20;99.90;;;;;;5054442;28;20033;-72
2023/07/20 05:43:58;;;;;;;1999.90;999.90;;;15.30;99.90;;;;;;5036396;28;20029;-72
2023/07/20 05:46:24;;;;;;;1999.90;999.90;;;15.30;99.90;;;;;;5053160;28;20387;-72
2023/07/20 05:48:50;;;;;;;1999.90;999.90;;;15.40;99.90;;;;;;5035378;28;20029;-72
2023/07/20 05:51:15;;;;;;;1999.90;999.90;;;15.50;99.90;;;;;;5063468;28;20082;-72
2023/07/20 05:53:41;;;;;;;1999.90;999.90;;;15.50;99.90;;;;;;5074129;28;20024;-72
2023/07/20 05:56:10;;;;;;;1999.90;999.90;;;15.60;99.90;;;;;;5073354;28;20032;-72
2023/07/20 05:58:36;;;;;;;1999.90;999.90;;;15.80;99.90;;;;;;5073094;28;20104;-73
2023/07/20 06:01:03;;;;;;;1999.90;999.90;;;15.90;99.90;;;;;;5065148;28;20071;-73
2023/07/20 06:03:29;;;;;;;1999.90;999.90;;;16.10;99.90;;;;;;5050770;28;20027;-72
2023/07/20 06:06:01;;;;;;;1999.90;999.90;;;16.20;99.90;;;;;;5065529;28;20028;-73
2023/07/20 06:08:28;;;;;;;1999.90;999.90;;;16.20;99.90;;;;;;5073267;28;20024;-73
2023/07/20 06:10:54;;;;;;;1999.90;999.90;;;16.40;99.90;;;;;;5069068;28;20495;-72
2023/07/20 06:13:20;;;;;;;1999.90;999.90;;;16.50;99.90;;;;;;5056332;28;20025;-72
2023/07/20 06:15:47;;;;;;;1999.90;999.90;;;16.60;99.90;;;;;;5054012;28;20458;-72
2023/07/20 06:18:13;;;;;;;1999.90;999.90;;;16.70;99.90;;;;;;5036505;28;20411;-72
2023/07/20 06:20:38;;;;;;;1999.90;999.90;;;16.80;99.90;;;;;;5053318;28;20037;-71
2023/07/20 06:23:04;;;;;;;1999.90;999.90;;;16.90;99.90;;;;;;5053787;28;20036;-71
2023/07/20 06:25:29;;;;;;;1999.90;999.90;;;17.00;99.90;;;;;;5058420;28;20028;-71
2023/07/20 06:27:56;;;;;;;1999.90;999.90;;;17.20;99.90;;;;;;5070694;28;20418;-72
2023/07/20 06:30:22;;;;;;;1999.90;999.90;;;17.30;99.90;;;;;;5060821;28;20392;-72
2023/07/20 06:32:48;;;;;;;1999.90;999.90;;;17.40;99.90;;;;;;5029579;28;20454;-71
2023/07/20 06:35:15;;;;;;;1999.90;999.90;;;17.50;99.90;;;;;;5042756;28;20029;-71
2023/07/20 06:37:40;;;;;;;1999.90;999.90;;;17.60;99.90;;;;;;5027306;28;20760;-71
2023/07/20 06:40:08;;;;;;;1999.90;999.90;;;17.60;99.90;;;;;;5051514;28;20040;-70
2023/07/20 06:42:34;;;;;;;1999.90;999.90;;;17.70;99.90;;;;;;5046620;28;20081;-71
2023/07/20 06:45:00;;;;;;;1999.90;999.90;;;17.80;99.90;;;;;;5054498;28;20039;-71
2023/07/20 06:47:26;;;;;;;1999.90;999.90;;;17.90;99.90;;;;;;5050000;28;20025;-68
2023/07/20 06:49:52;;;;;;;1999.90;999.90;;;18.00;99.90;;;;;;5049460;28;20435;-71
2023/07/20 06:52:17;;;;;;;1999.90;999.90;;;18.10;99.90;;;;;;5066880;28;20048;-71
2023/07/20 06:54:43;;;;;;;1999.90;999.90;;;18.20;99.90;;;;;;5060709;28;20032;-74
2023/07/20 06:57:08;;;;;;;1999.90;999.90;;;18.30;99.90;;;;;;5063553;28;20237;-71
2023/07/20 06:59:34;;;;;;;1999.90;999.90;;;18.40;99.90;;;;;;5071251;28;20028;-71
2023/07/20 07:02:00;;;;;;;1999.90;999.90;;;18.50;99.90;;;;;;5049473;28;20025;-71
2023/07/20 07:04:26;;;;;;;1999.90;999.90;;;18.50;99.90;;;;;;5051289;28;20040;-71
2023/07/20 07:06:51;;;;;;;1999.90;999.90;;;18.50;99.90;;;;;;5052034;28;20510;-71
2023/07/20 07:09:18;;;;;;;1999.90;999.90;;;18.60;99.90;;;;;;5051045;28;20147;-71
2023/07/20 07:11:44;;;;;;;1999.90;999.90;;;18.80;99.90;;;;;;5051506;28;20020;-71
2023/07/20 07:14:12;;;;;;;1999.90;999.90;;;18.80;99.90;;;;;;5051564;28;20434;-71
2023/07/20 07:16:38;;;;;;;1999.90;999.90;;;19.00;99.90;;;;;;5050298;28;20053;-71
2023/07/20 07:19:05;;;;;;;1999.90;999.90;;;19.20;99.90;;;;;;5048381;28;20154;-71
2023/07/20 07:21:31;;;;;;;1999.90;999.90;;;19.20;99.90;;;;;;5050327;28;20037;-71
2023/07/20 07:23:57;;;;;;;1999.90;999.90;;;19.20;99.90;;;;;;5049415;28;20027;-75
2023/07/20 07:26:24;;;;;;;1999.90;999.90;;;19.40;99.90;;;;;;5055940;28;20031;-71
2023/07/20 07:28:49;;;;;;;1999.90;999.90;;;19.60;99.90;;;;;;5057658;28;20025;-71
2023/07/20 07:31:15;;;;;;;1999.90;999.90;;;19.70;99.90;;;;;;5046489;28;20051;-71
2023/07/20 07:33:41;;;;;;;1999.90;999.90;;;19.80;99.90;;;;;;5028165;28;20060;-71
2023/07/20 07:36:06;;;;;;;1999.90;999.90;;;20.00;99.90;;;;;;5053590;28;20107;-71
2023/07/20 07:38:32;;;;;;;1999.90;999.90;;;20.10;99.90;;;;;;5042140;28;20063;-72
2023/07/20 07:40:59;;;;;;;1999.90;999.90;;;20.20;99.90;;;;;;5036898;28;20175;-72
2023/07/20 07:43:24;;;;;;;1999.90;999.90;;;20.60;99.90;;;;;;5039602;28;20021;-72
2023/07/20 07:45:50;;;;;;;1999.90;999.90;;;21.50;99.90;;;;;;5050664;28;20056;-75
2023/07/20 07:48:17;;;;;;;1999.90;999.90;;;23.80;99.90;;;;;;5035380;28;20026;-72
2023/07/20 07:50:42;;;;;;;1999.90;999.90;;;24.40;99.90;;;;;;5050464;28;20441;-72
2023/07/20 07:53:08;;;;;;;1999.90;999.90;;;24.80;99.90;;;;;;5037062;28;20021;-72
2023/07/20 07:55:35;;;;;;;1999.90;999.90;;;25.50;99.90;;;;;;5049513;28;20028;-72
2023/07/20 07:58:01;;;;;;;1999.90;999.90;;;25.90;99.90;;;;;;5050582;28;20037;-72
2023/07/20 08:00:26;;;;;;;1999.90;999.90;;;25.80;99.90;;;;;;5031337;28;20071;-72
2023/07/20 08:02:52;;;;;;;1999.90;999.90;;;26.20;99.90;;;;;;5048858;28;20037;-76
2023/07/20 08:05:17;;;;;;;1999.90;999.90;;;26.80;99.90;;;;;;5043776;28;20104;-72
2023/07/20 08:07:43;;;;;;;1999.90;999.90;;;26.70;99.90;;;;;;5042018;28;20151;-72
2023/07/20 08:10:09;;;;;;;1999.90;999.90;;;24.90;99.90;;;;;;5028586;28;20444;-72
2023/07/20 08:12:35;;;;;;;1999.90;999.90;;;25.00;99.90;;;;;;5030964;28;20026;-75
2023/07/20 08:15:01;;;;;;;1999.90;999.90;;;26.40;99.90;;;;;;5047229;28;20049;-75
2023/07/20 08:17:26;;;;;;;1999.90;999.90;;;28.10;99.90;;;;;;5046409;28;20499;-72
2023/07/20 08:19:52;;;;;;;1999.90;999.90;;;27.80;99.90;;;;;;5047759;28;20033;-72
2023/07/20 08:22:17;;;;;;;1999.90;999.90;;;27.00;99.90;;;;;;5049196;28;20028;-71
2023/07/20 08:24:43;;;;;;;1999.90;999.90;;;25.60;99.90;;;;;;5036488;28;20127;-71
2023/07/20 08:27:10;;;;;;;1999.90;999.90;;;24.20;99.90;;;;;;5048886;28;20041;-71
2023/07/20 08:29:36;;;;;;;1999.90;999.90;;;23.20;99.90;;;;;;5044606;28;20032;-71
2023/07/20 08:32:02;;;;;;;1999.90;999.90;;;23.10;99.90;;;;;;5056458;28;20024;-71
2023/07/20 08:34:27;;;;;;;1999.90;999.90;;;23.20;99.90;;;;;;5032234;28;20032;-72
2023/07/20 08:36:53;;;;;;;1999.90;999.90;;;23.00;99.90;;;;;;5049542;28;20039;-71
2023/07/20 08:39:19;;;;;;;1999.90;999.90;;;23.80;99.90;;;;;;5051991;28;20072;-71
2023/07/20 08:41:46;;;;;;;1999.90;999.90;;;25.10;99.90;;;;;;5052631;28;20495;-75
2023/07/20 08:44:12;;;;;;;1999.90;999.90;;;28.20;99.90;;;;;;5052662;28;20065;-72
2023/07/20 08:46:38;;;;;;;1999.90;999.90;;;30.20;99.90;;;;;;5052553;28;20544;-72
2023/07/20 08:49:05;;;;;;;1999.90;999.90;;;31.90;99.90;;;;;;5061208;28;20032;-72
2023/07/20 08:51:31;;;;;;;1999.90;999.90;;;32.70;99.90;;;;;;5074264;28;20028;-73
2023/07/20 08:53:58;;;;;;;1999.90;999.90;;;30.80;99.90;;;;;;5074564;28;20072;-76
2023/07/20 08:56:26;;;;;;;1999.90;999.90;;;31.20;99.90;;;;;;5060735;28;20545;-72
2023/07/20 08:58:53;;;;;;;1999.90;999.90;;;31.90;99.90;;;;;;5040191;28;20074;-72
2023/07/20 09:01:20;;;;;;;1999.90;999.90;;;31.90;99.90;;;;;;5048730;28;20021;-72
2023/07/20 09:03:46;;;;;;;1999.90;999.90;;;30.00;99.90;;;;;;5061225;28;20067;-76
2023/07/20 09:06:12;;;;;;;1999.90;999.90;;;30.50;99.90;;;;;;5053723;28;20057;-76
2023/07/20 09:08:39;;;;;;;1999.90;999.90;;;31.70;99.90;;;;;;5053782;28;20029;-72
2023/07/20 09:11:05;;;;;;;1999.90;999.90;;;32.80;99.90;;;;;;5053740;28;20024;-72
2023/07/20 09:13:33;;;;;;;1999.90;999.90;;;33.20;99.90;;;;;;5053954;28;20032;-72
2023/07/20 09:15:58;;;;;;;1999.90;999.90;;;33.10;99.80;;;;;;5033180;28;20046;-72
2023/07/20 09:18:25;;;;;;;1999.90;999.90;;;31.80;99.90;;;;;;5049562;28;20040;-71
2023/07/20 09:20:51;;;;;;;1999.90;999.90;;;29.90;99.90;;;;;;5034129;28;20026;-71
2023/07/20 09:23:17;;;;;;;1999.90;999.90;;;27.70;99.90;;;;;;5033259;28;20120;-71
2023/07/20 09:25:42;;;;;;;1999.90;999.90;;;27.00;99.90;;;;;;5034072;28;20108;-72
2023/07/20 09:28:08;;;;;;;1999.90;999.90;;;29.60;99.90;;;;;;5025896;28;20503;-72
2023/07/20 09:30:34;;;;;;;1999.90;999.90;;;30.90;99.90;;;;;;5029981;28;20067;-76
2023/07/20 09:33:00;;;;;;;1999.90;999.90;;;32.30;99.90;;;;;;5029414;28;20550;-72
2023/07/20 09:35:26;;;;;;;1999.90;999.90;;;31.80;99.90;;;;;;5033815;28;20101;-71
2023/07/20 09:37:58;;;;;;;1999.90;999.90;;;29.50;99.90;;;;;;5032138;28;20037;-72
2023/07/20 09:40:25;;;;;;;1999.90;999.90;;;30.30;99.90;;;;;;5033417;28;20029;-71
2023/07/20 09:42:52;;;;;;;1999.90;999.90;;;31.60;99.90;;;;;;5027565;28;20034;-72
2023/07/20 09:45:18;;;;;;;1999.90;999.90;;;31.70;99.90;;;;;;5026375;28;20037;-75
2023/07/20 09:47:44;;;;;;;1999.90;999.90;;;31.10;99.90;;;;;;5027704;28;20036;-72
2023/07/20 09:50:10;;;;;;;1999.90;999.90;;;32.20;99.90;;;;;;5024984;28;20399;-72
2023/07/20 09:52:40;;;;;;;1999.90;999.90;;;30.80;99.90;;;;;;5031968;28;20503;-71
2023/07/20 09:55:07;;;;;;;1999.90;999.90;;;28.60;99.90;;;;;;5033353;28;20025;-71
2023/07/20 09:57:33;;;;;;;1999.90;999.90;;;27.70;99.90;;;;;;5028014;28;20451;-71
2023/07/20 09:59:59;;;;;;;1999.90;999.90;;;28.70;99.90;;;;;;5029937;28;20079;-72
2023/07/20 10:02:33;;;;;;;1999.90;999.90;;;31.10;99.90;;;;;;5025979;28;20025;-72
2023/07/20 10:05:04;;;;;;;1999.90;999.90;;;32.00;99.90;;;;;;5032521;28;20064;-71
2023/07/20 10:07:30;;;;;;;1999.90;999.90;;;31.00;99.90;;;;;;5019687;28;20443;-72
2023/07/20 10:09:59;;;;;;;1999.90;999.90;;;29.70;99.90;;;;;;5028605;28;20021;-75
2023/07/20 10:12:27;;;;;;;1999.90;999.90;;;27.70;99.90;;;;;;5033165;28;20026;-71
2023/07/20 10:15:19;;;;;;;1999.90;999.90;;;28.80;99.90;;;;;;5025388;28;20446;-70
2023/07/20 10:17:59;;;;;;;1999.90;999.90;;;27.70;99.90;;;;;;5032742;28;20041;-71
2023/07/20 10:20:27;;;;;;;1999.90;999.90;;;25.90;99.90;;;;;;5041420;28;20037;-72
2023/07/20 10:22:55;;;;;;;1999.90;999.90;;;26.20;99.90;;;;;;5050490;28;20519;-71
2023/07/20 10:25:22;;;;;;;1999.90;999.90;;;25.90;99.90;;;;;;5054933;28;20028;-71
2023/07/20 10:27:48;;;;;;;1999.90;999.90;;;27.10;99.90;;;;;;5054223;28;20036;-71
2023/07/20 10:30:14;;;;;;;1999.90;999.90;;;29.70;99.90;;;;;;5053361;28;20033;-71
2023/07/20 10:32:42;;;;;;;1999.90;999.90;;;31.00;99.90;;;;;;5033663;28;20500;-71
2023/07/20 10:35:15;;;;;;;1999.90;999.90;;;30.70;99.90;;;;;;5050874;28;20113;-71
2023/07/20 10:38:03;;;;;;;1999.90;999.90;;;29.10;99.90;;;;;;5051639;28;21550;-75
2023/07/20 10:40:32;;;;;;;1999.90;999.90;;;27.80;99.90;;;;;;5046875;28;20044;-71
2023/07/20 10:43:03;;;;;;;1999.90;999.90;;;28.30;99.90;;;;;;5030874;28;20099;-71
2023/07/20 10:45:38;;;;;;;1999.90;999.90;;;29.60;99.90;;;;;;5050076;28;20086;-71
2023/07/20 10:48:05;;;;;;;1999.90;999.90;;;28.40;99.90;;;;;;5045341;28;20115;-72
2023/07/20 10:50:34;;;;;;;1999.90;999.90;;;29.10;99.90;;;;;;5044636;28;20108;-72
2023/07/20 10:53:14;;;;;;;1999.90;999.90;;;29.40;99.90;;;;;;5044476;28;20018;-72
2023/07/20 10:55:40;;;;;;;1999.90;999.90;;;29.60;99.90;;;;;;5045939;28;20395;-72
2023/07/20 10:58:11;;;;;;;1999.90;999.90;;;29.30;99.90;;;;;;5070459;28;20036;-71
2023/07/20 11:00:37;;;;;;;1999.90;999.90;;;30.50;99.90;;;;;;5070689;28;20107;-71
2023/07/20 11:03:04;;;;;;;1999.90;999.90;;;31.20;99.90;;;;;;5052862;28;20039;-71
2023/07/20 11:05:36;;;;;;;1999.90;999.90;;;31.50;99.90;;;;;;5034928;28;20032;-71
2023/07/20 11:08:12;;;;;;;1999.90;999.90;;;31.60;99.90;;;;;;5070709;28;20513;-72
2023/07/20 11:10:38;;;;;;;1999.90;999.90;;;30.80;99.90;;;;;;5057771;28;20112;-72
2023/07/20 11:13:17;;;;;;;1999.90;999.90;;;31.40;99.90;;;;;;5031788;28;20029;-72
2023/07/20 11:16:04;;;;;;;1999.90;999.90;;;31.00;99.90;;;;;;5047722;28;20524;-76
2023/07/20 11:18:30;;;;;;;1999.90;999.90;;;30.70;99.90;;;;;;5023116;28;20541;-72
2023/07/20 11:20:57;;;;;;;1999.90;999.90;;;31.60;99.90;;;;;;5043415;28;20499;-72
2023/07/20 11:23:23;;;;;;;1999.90;999.90;;;31.80;99.90;;;;;;5055238;28;20074;-71
2023/07/20 11:25:49;;;;;;;1999.90;999.90;;;31.90;99.90;;;;;;5048129;28;20029;-71
2023/07/20 11:28:15;;;;;;;1999.90;999.90;;;32.10;99.90;;;;;;5028126;28;20029;-71
2023/07/20 11:30:41;;;;;;;1999.90;999.90;;;31.20;99.90;;;;;;5032999;28;20025;-71
2023/07/20 11:33:10;;;;;;;1999.90;999.90;;;30.00;99.90;;;;;;5049778;28;20446;-72
2023/07/20 11:35:42;;;;;;;1999.90;999.90;;;30.50;99.90;;;;;;5051173;28;20438;-72
2023/07/20 11:38:08;;;;;;;1999.90;999.90;;;30.70;99.90;;;;;;5048426;28;20055;-71
2023/07/20 11:40:33;;;;;;;1999.90;999.90;;;29.80;99.90;;;;;;5050690;28;20747;-75
2023/07/20 11:42:59;;;;;;;1999.90;999.90;;;30.40;99.90;;;;;;5050453;28;20478;-75
2023/07/20 11:45:27;;;;;;;1999.90;999.90;;;29.90;99.90;;;;;;5050561;28;20052;-71
2023/07/20 11:47:53;;;;;;;1999.90;999.90;;;30.50;99.90;;;;;;5031340;28;20075;-71
2023/07/20 11:50:18;;;;;;;1999.90;999.90;;;31.00;99.90;;;;;;5035289;28;20431;-71
2023/07/20 11:52:44;;;;;;;1999.90;999.90;;;30.90;99.90;;;;;;5051273;28;20033;-76
2023/07/20 11:55:11;;;;;;;1999.90;999.90;;;30.70;99.90;;;;;;5070519;28;20044;-71
2023/07/20 11:57:38;;;;;;;1999.90;999.90;;;30.30;99.90;;;;;;5068382;28;20036;-71